Cruise inventory

RV Jan Mayen JM9

Cruise plan

Cruise Info. 
Ship name (ship code)RV Jan Mayen (58JM)
Cruise identifierJM9
Cruise period1995-05-16 — 1995-05-17
StatusCompleted
PurposeResearch
ObjectivesICES Reference Number 1995 58 074
Chief scientistKurt Tande (University of Tromsø Norwegian College of Fishery Science)
ProjectOMEX
Ocean/sea areas 
GeneralNorwegian Sea
SpecificNorwegian Sea
Data held at BODC 
Series/Profiles 
42  Bottle station
Quality control flags
Chlorophyll pigment concentrations in water bodies
Silicate concentration parameters in the water column
Vertical spatial coordinates
Nitrate concentration parameters in the water column
Nitrite concentration parameters in the water column
Phosphate concentration parameters in the water column
Phaeopigment concentrations in the water column
Reference numbers
Quality control flags
Chlorophyll pigment concentrations in water bodies
Silicate concentration parameters in the water column
Vertical spatial coordinates
Nitrate concentration parameters in the water column
Nitrite concentration parameters in the water column
Phosphate concentration parameters in the water column
Phaeopigment concentrations in the water column
Reference numbers

BODC idDate/TimeLocationDoc.
16372201995-05-16 01:12 69° 36' 29" N  17° 52' 30" E  View metadata report for BODC series reference number 1637220
16372321995-05-16 02:08 69° 40' 0" N  17° 48' 0" E  View metadata report for BODC series reference number 1637232
16372441995-05-16 04:07 69° 41' 17" N  17° 28' 11" E  View metadata report for BODC series reference number 1637244
16372561995-05-16 05:12 69° 45' 42" N  17° 36' 42" E  View metadata report for BODC series reference number 1637256
16372681995-05-16 06:07 69° 51' 18" N  17° 46' 59" E  View metadata report for BODC series reference number 1637268
16372811995-05-16 07:06 69° 54' 18" N  17° 30' 29" E  View metadata report for BODC series reference number 1637281
16372931995-05-16 08:12 69° 48' 11" N  17° 23' 41" E  View metadata report for BODC series reference number 1637293
16373001995-05-16 10:06 69° 42' 0" N  17° 13' 59" E  View metadata report for BODC series reference number 1637300
16373121995-05-16 11:06 69° 43' 0" N  16° 59' 30" E  View metadata report for BODC series reference number 1637312
16373241995-05-16 13:10 69° 50' 48" N  17° 6' 35" E  View metadata report for BODC series reference number 1637324
16373361995-05-16 14:07 69° 57' 17" N  17° 13' 0" E  View metadata report for BODC series reference number 1637336
16373481995-05-16 15:07 69° 59' 30" N  16° 52' 59" E  View metadata report for BODC series reference number 1637348
16373611995-05-16 17:11 69° 52' 0" N  16° 49' 0" E  View metadata report for BODC series reference number 1637361
16373731995-05-16 18:07 69° 43' 48" N  16° 44' 30" E  View metadata report for BODC series reference number 1637373
16373851995-05-16 20:13 69° 44' 12" N  16° 39' 11" E  View metadata report for BODC series reference number 1637385
16373971995-05-16 21:12 69° 52' 36" N  16° 35' 30" E  View metadata report for BODC series reference number 1637397
16374041995-05-16 23:11 70° 0' 17" N  16° 49' 59" E  View metadata report for BODC series reference number 1637404
16374161995-05-16 23:20 70° 0' 42" N  16° 46' 5" E  View metadata report for BODC series reference number 1637416
16374281995-05-17 01:19 69° 53' 17" N  16° 31' 59" E  View metadata report for BODC series reference number 1637428
16374411995-05-17 02:22 69° 44' 35" N  16° 32' 48" E  View metadata report for BODC series reference number 1637441
16374531995-05-17 05:11 69° 44' 30" N  16° 39' 42" E  View metadata report for BODC series reference number 1637453
12551541995-05-16 01:12 69° 36' 29" N  17° 52' 30" E  View metadata report for BODC series reference number 1255154
12551661995-05-16 02:08 69° 40' 0" N  17° 48' 0" E  View metadata report for BODC series reference number 1255166
12551781995-05-16 04:07 69° 41' 17" N  17° 28' 11" E  View metadata report for BODC series reference number 1255178
12551911995-05-16 05:12 69° 45' 42" N  17° 36' 42" E  View metadata report for BODC series reference number 1255191
12552091995-05-16 06:07 69° 51' 18" N  17° 46' 59" E  View metadata report for BODC series reference number 1255209
12552101995-05-16 07:06 69° 54' 18" N  17° 30' 29" E  View metadata report for BODC series reference number 1255210
12552221995-05-16 08:12 69° 48' 11" N  17° 23' 41" E  View metadata report for BODC series reference number 1255222
12552341995-05-16 10:06 69° 42' 0" N  17° 13' 59" E  View metadata report for BODC series reference number 1255234
12552461995-05-16 11:06 69° 43' 0" N  16° 59' 30" E  View metadata report for BODC series reference number 1255246
12552581995-05-16 13:10 69° 50' 48" N  17° 6' 35" E  View metadata report for BODC series reference number 1255258
12552711995-05-16 14:07 69° 57' 17" N  17° 13' 0" E  View metadata report for BODC series reference number 1255271
12552831995-05-16 15:07 69° 59' 30" N  16° 52' 59" E  View metadata report for BODC series reference number 1255283
12552951995-05-16 17:11 69° 52' 0" N  16° 49' 0" E  View metadata report for BODC series reference number 1255295
12553021995-05-16 18:07 69° 43' 48" N  16° 44' 30" E  View metadata report for BODC series reference number 1255302
12553141995-05-16 20:13 69° 44' 12" N  16° 39' 11" E  View metadata report for BODC series reference number 1255314
12553261995-05-16 21:12 69° 52' 36" N  16° 35' 30" E  View metadata report for BODC series reference number 1255326
12553381995-05-16 23:11 70° 0' 17" N  16° 49' 59" E  View metadata report for BODC series reference number 1255338
12553511995-05-16 23:20 70° 0' 42" N  16° 46' 5" E  View metadata report for BODC series reference number 1255351
12553631995-05-17 01:19 69° 53' 17" N  16° 31' 59" E  View metadata report for BODC series reference number 1255363
12553751995-05-17 02:22 69° 44' 35" N  16° 32' 48" E  View metadata report for BODC series reference number 1255375
12553871995-05-17 05:11 69° 44' 30" N  16° 39' 42" E  View metadata report for BODC series reference number 1255387
24  CTD/STD cast
Density of the water column
Vertical spatial coordinates
Salinity of the water column
Temperature of the water column
Density of the water column
Vertical spatial coordinates
Salinity of the water column
Temperature of the water column

BODC idDate/TimeLocationDoc.
8930781995-05-16 01:00 69° 36' 29" N  17° 52' 30" E  View metadata report for BODC series reference number 893078
8930911995-05-16 02:00 69° 40' 0" N  17° 48' 0" E  View metadata report for BODC series reference number 893091
8931091995-05-16 04:00 69° 41' 17" N  17° 28' 11" E  View metadata report for BODC series reference number 893109
8931101995-05-16 05:00 69° 45' 42" N  17° 36' 42" E  View metadata report for BODC series reference number 893110
8931221995-05-16 06:00 69° 51' 18" N  17° 46' 59" E  View metadata report for BODC series reference number 893122
8931341995-05-16 07:00 69° 54' 18" N  17° 30' 29" E  View metadata report for BODC series reference number 893134
8931461995-05-16 08:00 69° 48' 11" N  17° 23' 41" E  View metadata report for BODC series reference number 893146
8931581995-05-16 10:00 69° 42' 0" N  17° 13' 59" E  View metadata report for BODC series reference number 893158
8931711995-05-16 11:00 69° 43' 0" N  16° 59' 30" E  View metadata report for BODC series reference number 893171
8931831995-05-16 13:00 69° 50' 48" N  17° 6' 35" E  View metadata report for BODC series reference number 893183
8931951995-05-16 14:00 69° 57' 17" N  17° 13' 0" E  View metadata report for BODC series reference number 893195
8932021995-05-16 15:00 69° 59' 30" N  16° 52' 59" E  View metadata report for BODC series reference number 893202
8932141995-05-16 17:00 69° 52' 0" N  16° 49' 0" E  View metadata report for BODC series reference number 893214
8932261995-05-16 18:00 69° 43' 48" N  16° 44' 30" E  View metadata report for BODC series reference number 893226
8932381995-05-16 20:00 69° 44' 12" N  16° 39' 11" E  View metadata report for BODC series reference number 893238
8932511995-05-16 21:00 69° 52' 36" N  16° 35' 30" E  View metadata report for BODC series reference number 893251
8932631995-05-16 23:00 70° 0' 17" N  16° 49' 59" E  View metadata report for BODC series reference number 893263
8932751995-05-16 23:00 70° 0' 42" N  16° 46' 5" E  View metadata report for BODC series reference number 893275
8932871995-05-17 01:00 69° 53' 17" N  16° 31' 59" E  View metadata report for BODC series reference number 893287
8932991995-05-17 02:00 69° 44' 35" N  16° 32' 48" E  View metadata report for BODC series reference number 893299
8933061995-05-17 03:00 69° 44' 30" N  16° 39' 36" E  View metadata report for BODC series reference number 893306
8933181995-05-17 05:00 69° 44' 30" N  16° 39' 42" E  View metadata report for BODC series reference number 893318
8933311995-05-17 06:00 69° 44' 35" N  16° 40' 18" E  View metadata report for BODC series reference number 893331
8933431995-05-17 09:00 69° 44' 53" N  16° 40' 54" E  View metadata report for BODC series reference number 893343
Discrete samples 
21  CTD frame plus rosette samplerParticulate total and organic carbon concentrations in the water column
Particulate total and organic nitrogen concentrations in the water column
Density of the water column
Chlorophyll pigment concentrations in water bodies
Silicate concentration parameters in the water column
Salinity of the water column
Temperature of the water column
Nitrate concentration parameters in the water column
Nitrite concentration parameters in the water column
Phosphate concentration parameters in the water column
Phaeopigment concentrations in the water column
1  Drifting rig with sediment trapsSedimentation flux of carbon, nitrogen or organic matter in the water column
Sedimentation flux of pigments in the water column